Terminal Aerodrome Forecast
Issued by NWS

Current Version | Previous Version | Text Only | Print | Product List | Glossary Off
Versions: 1 2 3 4 5 6 7 8 9 10 11 12 13 14 15 16 17 18 19 20 21 22 23 24 25 26 27

000
FTUS41 KILN 132100 AAA
TAFLUK
TAF AMD
KLUK 132100Z 1321/1418 17015G21KT P6SM BKN100
     FM132200 22017G28KT P6SM OVC070
     FM140300 25012G22KT P6SM OVC040
     FM140800 30011KT P6SM OVC028
     FM141200 35007KT P6SM SCT030=

USA.gov is the U.S. government's official web portal to all federal, state and local government web resources and services.